Time;durP1;ratioP1;P1;durP2;ratioP2;P2;SDS_P1;SDS_P2;PMS_P1;PMS_P2;Temp;Humidity;BMP_temperature;BMP_pressure;BME280_temperature;BME280_humidity;BME280_pressure;Samples;Min_cycle;Max_cycle;Signal;HPM_P1;HPM_P2
2021/05/13 00:00:10;;;;;;;9.03;5.73;;;11.80;99.90;;;;;;4935410;29;20467;-78
2021/05/13 00:02:42;;;;;;;9.37;5.90;;;11.80;99.90;;;;;;4935456;29;20536;-77
2021/05/13 00:05:11;;;;;;;9.13;5.60;;;11.80;99.90;;;;;;4936189;29;20565;-77
2021/05/13 00:07:42;;;;;;;10.63;5.90;;;11.80;99.90;;;;;;4936856;29;20472;-77
2021/05/13 00:10:13;;;;;;;10.60;5.43;;;11.80;99.90;;;;;;4936487;29;20514;-77
2021/05/13 00:12:47;;;;;;;9.52;5.80;;;11.80;99.90;;;;;;4936002;29;20536;-78
2021/05/13 00:15:19;;;;;;;7.20;5.50;;;11.80;99.90;;;;;;4935274;29;20275;-77
2021/05/13 00:17:47;;;;;;;6.83;5.43;;;11.80;99.90;;;;;;4935015;29;20567;-77
2021/05/13 00:20:19;;;;;;;8.83;6.73;;;11.70;99.90;;;;;;4936294;29;20467;-77
2021/05/13 00:22:47;;;;;;;11.77;7.00;;;11.70;99.90;;;;;;4936625;29;20849;-77
2021/05/13 00:25:15;;;;;;;10.53;6.53;;;11.60;99.90;;;;;;4934977;29;20985;-77
2021/05/13 00:27:43;;;;;;;10.03;6.33;;;11.60;99.90;;;;;;4935055;29;20494;-77
2021/05/13 00:30:11;;;;;;;10.83;6.60;;;11.50;99.90;;;;;;4936285;29;20931;-77
2021/05/13 00:32:40;;;;;;;12.33;6.30;;;11.50;99.90;;;;;;4936275;29;20534;-77
2021/05/13 00:35:10;;;;;;;9.53;6.80;;;11.50;99.90;;;;;;4935826;29;20458;-78
2021/05/13 00:37:38;;;;;;;11.70;7.37;;;11.50;99.90;;;;;;4936156;29;20573;-78
2021/05/13 00:40:09;;;;;;;10.43;6.60;;;11.50;99.90;;;;;;4936194;29;20500;-77
2021/05/13 00:42:37;;;;;;;11.70;6.87;;;11.40;99.90;;;;;;4936455;29;20514;-77
2021/05/13 00:45:06;;;;;;;6.90;5.97;;;11.40;99.90;;;;;;4936226;29;20447;-77
2021/05/13 00:47:36;;;;;;;9.10;6.27;;;11.40;99.90;;;;;;4936722;29;20771;-77
2021/05/13 00:50:04;;;;;;;10.93;6.57;;;11.40;99.90;;;;;;4934744;29;20538;-78
2021/05/13 00:52:33;;;;;;;8.00;6.23;;;11.40;99.90;;;;;;4940236;29;20435;-78
2021/05/13 00:55:01;;;;;;;8.37;6.70;;;11.40;99.90;;;;;;4938751;29;20443;-78
2021/05/13 00:57:31;;;;;;;11.83;6.70;;;11.40;99.90;;;;;;4936427;29;20452;-78
2021/05/13 01:00:03;;;;;;;14.20;6.87;;;11.40;99.90;;;;;;4938624;29;20571;-78
2021/05/13 01:02:31;;;;;;;11.33;6.93;;;11.40;99.90;;;;;;4940173;29;20424;-78
2021/05/13 01:04:59;;;;;;;11.90;7.60;;;11.30;99.90;;;;;;4939851;29;20533;-78
2021/05/13 01:07:26;;;;;;;9.20;6.57;;;11.30;99.90;;;;;;4938732;29;20527;-78
2021/05/13 01:09:54;;;;;;;9.30;7.53;;;11.30;99.90;;;;;;4938450;29;20509;-78
2021/05/13 01:12:22;;;;;;;14.13;6.73;;;11.30;99.90;;;;;;4937455;29;20874;-79
2021/05/13 01:14:51;;;;;;;14.27;7.40;;;11.20;99.90;;;;;;4938845;29;20477;-78
2021/05/13 01:17:23;;;;;;;9.60;6.93;;;11.20;99.90;;;;;;4930551;29;20507;-78
2021/05/13 01:19:54;;;;;;;10.20;7.23;;;11.20;99.90;;;;;;4937952;29;20579;-78
2021/05/13 01:22:24;;;;;;;13.73;7.50;;;11.20;99.90;;;;;;4938290;29;20455;-78
2021/05/13 01:24:53;;;;;;;11.33;7.33;;;11.20;99.90;;;;;;4939742;29;20442;-78
2021/05/13 01:27:21;;;;;;;12.53;6.70;;;11.20;99.90;;;;;;4939388;29;20439;-78
2021/05/13 01:29:50;;;;;;;11.25;7.65;;;11.10;99.90;;;;;;4937505;29;20455;-78
2021/05/13 01:32:18;;;;;;;12.63;7.30;;;11.20;99.90;;;;;;4938146;29;20666;-78
2021/05/13 01:34:47;;;;;;;14.60;7.97;;;11.20;99.90;;;;;;4939303;29;20535;-78
2021/05/13 01:37:14;;;;;;;12.70;6.90;;;11.10;99.90;;;;;;4937782;29;20459;-78
2021/05/13 01:39:43;;;;;;;12.18;7.60;;;11.10;99.90;;;;;;4938829;29;20986;-78
2021/05/13 01:42:14;;;;;;;12.67;7.53;;;11.10;99.90;;;;;;4939182;29;20232;-78
2021/05/13 01:44:44;;;;;;;11.90;8.37;;;11.10;99.90;;;;;;4938018;29;20452;-78
2021/05/13 01:47:12;;;;;;;9.60;7.60;;;11.00;99.90;;;;;;4939135;29;20496;-78
2021/05/13 01:49:40;;;;;;;11.57;6.73;;;10.90;99.90;;;;;;4938962;29;20574;-78
2021/05/13 01:52:08;;;;;;;9.77;7.70;;;10.90;99.90;;;;;;4939004;29;20451;-78
2021/05/13 01:54:36;;;;;;;9.93;6.83;;;10.90;99.90;;;;;;4937621;29;20886;-78
2021/05/13 01:57:06;;;;;;;11.23;7.40;;;10.90;99.90;;;;;;4938948;29;20506;-78
2021/05/13 01:59:34;;;;;;;12.03;7.80;;;10.90;99.90;;;;;;4937801;29;20483;-78
2021/05/13 02:02:02;;;;;;;12.90;8.40;;;10.80;99.90;;;;;;4939449;29;20440;-77
2021/05/13 02:04:31;;;;;;;12.83;8.40;;;10.80;99.90;;;;;;4937611;29;20546;-77
2021/05/13 02:06:58;;;;;;;11.13;7.37;;;10.90;99.90;;;;;;4938238;29;20505;-78
2021/05/13 02:09:26;;;;;;;10.33;8.20;;;10.80;99.90;;;;;;4938393;29;20574;-78
2021/05/13 02:11:54;;;;;;;12.63;9.37;;;10.80;99.90;;;;;;4938564;29;20854;-78
2021/05/13 02:14:22;;;;;;;11.23;7.90;;;10.80;99.90;;;;;;4937292;29;20455;-78
2021/05/13 02:16:50;;;;;;;10.60;7.27;;;10.80;99.90;;;;;;4938855;29;20471;-78
2021/05/13 02:19:19;;;;;;;12.90;8.33;;;10.70;99.90;;;;;;4937294;29;20504;-78
2021/05/13 02:21:46;;;;;;;14.10;8.60;;;10.70;99.90;;;;;;4937228;29;20539;-77
2021/05/13 02:24:14;;;;;;;11.43;8.20;;;10.70;99.90;;;;;;4937238;29;20895;-77
2021/05/13 02:26:41;;;;;;;12.53;9.37;;;10.70;99.90;;;;;;4937938;29;20455;-78
2021/05/13 02:29:09;;;;;;;11.57;8.07;;;10.60;99.90;;;;;;4936937;29;20486;-78
2021/05/13 02:31:37;;;;;;;11.17;8.13;;;10.60;99.90;;;;;;4938521;29;20447;-78
2021/05/13 02:34:05;;;;;;;15.77;8.37;;;10.60;99.90;;;;;;4938741;29;20447;-78
2021/05/13 02:36:33;;;;;;;11.33;7.63;;;10.60;99.90;;;;;;4936979;29;20452;-77
2021/05/13 02:39:01;;;;;;;11.30;8.13;;;10.60;99.90;;;;;;4938432;29;20507;-77
2021/05/13 02:41:28;;;;;;;11.30;7.90;;;10.60;99.90;;;;;;4938116;29;20851;-77
2021/05/13 02:43:56;;;;;;;12.73;8.07;;;10.60;99.90;;;;;;4938351;29;20470;-77
2021/05/13 02:46:23;;;;;;;15.37;8.83;;;10.60;99.90;;;;;;4936744;29;20451;-77
2021/05/13 02:48:52;;;;;;;16.08;8.80;;;10.60;99.90;;;;;;4937850;29;20500;-77
2021/05/13 02:51:20;;;;;;;10.77;8.33;;;10.60;99.90;;;;;;4937870;29;20212;-77
2021/05/13 02:53:47;;;;;;;15.77;10.17;;;10.60;99.90;;;;;;4936760;29;20454;-77
2021/05/13 02:56:15;;;;;;;14.93;8.40;;;10.60;99.90;;;;;;4936779;29;20502;-77
2021/05/13 02:58:43;;;;;;;14.10;9.87;;;10.60;99.90;;;;;;4935934;29;20512;-78
2021/05/13 03:01:22;;;;;;;15.33;9.83;;;10.60;99.90;;;;;;4936486;29;20450;-78
2021/05/13 03:03:49;;;;;;;13.73;9.47;;;10.60;99.90;;;;;;4937630;29;20446;-77
2021/05/13 03:06:19;;;;;;;17.00;9.00;;;10.60;99.90;;;;;;4937955;29;20467;-77
2021/05/13 03:08:49;;;;;;;12.87;10.77;;;10.60;99.90;;;;;;4936351;29;20502;-77
2021/05/13 03:11:16;;;;;;;14.77;8.87;;;10.50;99.90;;;;;;4936350;29;21115;-77
2021/05/13 03:13:45;;;;;;;12.77;9.00;;;10.50;99.90;;;;;;4936126;29;20476;-77
2021/05/13 03:16:12;;;;;;;16.10;8.87;;;10.50;99.90;;;;;;4936266;29;20456;-77
2021/05/13 03:18:42;;;;;;;10.30;8.97;;;10.50;99.90;;;;;;4937180;29;20451;-78
2021/05/13 03:21:13;;;;;;;12.47;9.70;;;10.50;99.90;;;;;;4936157;29;20483;-78
2021/05/13 03:23:46;;;;;;;11.47;9.20;;;10.50;99.90;;;;;;4936097;29;20457;-78
2021/05/13 03:26:13;;;;;;;12.70;9.20;;;10.50;99.90;;;;;;4937616;29;20429;-78
2021/05/13 03:28:41;;;;;;;12.80;8.87;;;10.50;99.90;;;;;;4936055;29;20447;-78
2021/05/13 03:31:08;;;;;;;14.37;10.80;;;10.50;99.90;;;;;;4937406;29;20518;-78
2021/05/13 03:33:36;;;;;;;12.77;9.67;;;10.50;99.90;;;;;;4937030;29;20850;-77
2021/05/13 03:36:04;;;;;;;13.33;10.27;;;10.50;99.90;;;;;;4937131;29;20446;-77
2021/05/13 03:38:32;;;;;;;12.90;9.47;;;10.50;99.90;;;;;;4937517;29;20475;-77
2021/05/13 03:41:00;;;;;;;13.67;10.70;;;10.50;99.90;;;;;;4936746;29;20475;-77
2021/05/13 03:43:28;;;;;;;14.30;10.30;;;10.50;99.90;;;;;;4937175;29;20802;-77
2021/05/13 03:45:56;;;;;;;14.20;8.87;;;10.50;99.90;;;;;;4936604;29;20942;-78
2021/05/13 03:48:23;;;;;;;16.73;9.90;;;10.50;99.90;;;;;;4935513;29;20945;-78
2021/05/13 03:50:51;;;;;;;13.40;9.00;;;10.50;99.90;;;;;;4935266;29;20495;-77
2021/05/13 03:53:19;;;;;;;10.63;8.77;;;10.50;99.90;;;;;;4935250;29;20917;-77
2021/05/13 03:55:51;;;;;;;13.13;9.50;;;10.50;99.90;;;;;;4935559;29;20486;-77
2021/05/13 03:58:20;;;;;;;11.67;8.97;;;10.40;99.90;;;;;;4935442;29;20448;-76
2021/05/13 04:01:01;;;;;;;14.00;9.50;;;10.40;99.90;;;;;;4935355;29;21019;-77
2021/05/13 04:03:29;;;;;;;12.17;10.60;;;10.40;99.90;;;;;;4937908;29;20424;-77
2021/05/13 04:05:56;;;;;;;13.33;9.37;;;10.40;99.90;;;;;;4934203;29;20554;-78
2021/05/13 04:08:24;;;;;;;13.20;10.30;;;10.40;99.90;;;;;;4935033;29;20454;-78
2021/05/13 04:10:52;;;;;;;12.82;10.05;;;10.40;99.90;;;;;;4934942;29;20568;-78
2021/05/13 04:13:20;;;;;;;11.60;9.87;;;10.40;99.90;;;;;;4934870;29;20511;-78
2021/05/13 04:15:52;;;;;;;14.20;10.90;;;10.40;99.90;;;;;;4936464;29;20459;-78
2021/05/13 04:18:20;;;;;;;13.83;11.20;;;10.40;99.90;;;;;;4935008;29;20466;-78
2021/05/13 04:20:48;;;;;;;14.13;11.43;;;10.40;99.90;;;;;;4935782;29;21072;-78
2021/05/13 04:23:16;;;;;;;14.13;11.30;;;10.50;99.90;;;;;;4934941;29;20215;-78
2021/05/13 04:25:43;;;;;;;13.53;10.57;;;10.40;99.90;;;;;;4934444;29;20471;-78
2021/05/13 04:28:11;;;;;;;16.07;9.90;;;10.50;99.90;;;;;;4934850;29;20547;-78
2021/05/13 04:30:40;;;;;;;12.53;11.13;;;10.50;99.90;;;;;;4936198;29;20482;-78
2021/05/13 04:33:07;;;;;;;13.57;9.93;;;10.50;99.90;;;;;;4936031;29;21007;-78
2021/05/13 04:35:35;;;;;;;13.60;10.57;;;10.40;99.90;;;;;;4936345;29;20490;-78
2021/05/13 04:38:03;;;;;;;11.47;10.17;;;10.40;99.90;;;;;;4934721;29;20981;-78
2021/05/13 04:40:31;;;;;;;15.67;11.17;;;10.40;99.90;;;;;;4932376;29;20926;-78
2021/05/13 04:42:59;;;;;;;14.23;10.67;;;10.40;99.90;;;;;;4936230;29;20525;-78
2021/05/13 04:45:26;;;;;;;16.77;12.10;;;10.40;99.90;;;;;;4934670;29;20494;-77
2021/05/13 04:48:07;;;;;;;15.00;11.33;;;10.40;99.90;;;;;;4936489;29;20471;-77
2021/05/13 04:50:35;;;;;;;17.57;12.70;;;10.50;99.90;;;;;;4936023;29;20503;-77
2021/05/13 04:53:08;;;;;;;15.77;11.37;;;10.50;99.90;;;;;;4934626;29;20543;-77
2021/05/13 04:55:36;;;;;;;17.17;11.40;;;10.50;99.90;;;;;;4936058;29;20524;-79
2021/05/13 04:58:04;;;;;;;15.00;12.57;;;10.50;99.90;;;;;;4930545;29;20456;-78
2021/05/13 05:00:32;;;;;;;17.10;12.73;;;10.50;99.90;;;;;;4934612;29;21033;-78
2021/05/13 05:03:00;;;;;;;15.30;13.07;;;10.50;99.90;;;;;;4934823;29;20448;-78
2021/05/13 05:05:28;;;;;;;19.50;12.93;;;10.60;99.90;;;;;;4934553;29;20456;-78
2021/05/13 05:07:56;;;;;;;15.63;13.03;;;10.60;99.90;;;;;;4934559;29;20494;-78
2021/05/13 05:10:24;;;;;;;18.43;13.57;;;10.60;99.90;;;;;;4934544;29;20479;-78
2021/05/13 05:12:52;;;;;;;17.53;12.77;;;10.60;99.90;;;;;;4934585;29;20822;-78
2021/05/13 05:15:19;;;;;;;18.57;14.83;;;10.70;99.90;;;;;;4934670;29;20459;-78
2021/05/13 05:17:47;;;;;;;21.10;15.10;;;10.70;99.90;;;;;;4934205;29;20463;-77
2021/05/13 05:20:15;;;;;;;19.60;13.90;;;10.70;99.90;;;;;;4935629;29;20985;-78
2021/05/13 05:22:43;;;;;;;19.10;14.10;;;10.70;99.90;;;;;;4934081;29;20995;-78
2021/05/13 05:25:11;;;;;;;19.33;15.63;;;10.70;99.90;;;;;;4934277;29;20964;-78
2021/05/13 05:27:39;;;;;;;22.67;16.47;;;10.70;99.90;;;;;;4935571;29;20560;-78
2021/05/13 05:30:08;;;;;;;23.20;19.03;;;10.70;99.90;;;;;;4934250;29;20494;-78
2021/05/13 05:32:35;;;;;;;27.90;20.40;;;10.80;99.90;;;;;;4934463;29;20506;-78
2021/05/13 05:35:08;;;;;;;26.38;21.65;;;10.80;99.90;;;;;;4935559;29;20633;-78
2021/05/13 05:37:39;;;;;;;24.83;22.03;;;10.80;99.90;;;;;;4937694;29;20196;-78
2021/05/13 05:40:08;;;;;;;26.17;22.90;;;10.90;99.90;;;;;;4937957;29;20993;-78
2021/05/13 05:42:36;;;;;;;25.90;21.37;;;10.90;99.90;;;;;;4937667;29;20506;-79
2021/05/13 05:45:04;;;;;;;26.77;22.83;;;10.90;99.90;;;;;;4938701;29;20481;-78
2021/05/13 05:47:32;;;;;;;31.50;23.63;;;11.00;99.90;;;;;;4939425;29;20208;-78
2021/05/13 05:50:00;;;;;;;24.23;21.63;;;11.00;99.90;;;;;;4937658;29;20487;-78
2021/05/13 05:52:28;;;;;;;27.80;23.20;;;11.10;99.90;;;;;;4937656;29;20807;-78
2021/05/13 05:55:00;;;;;;;25.97;23.20;;;11.10;99.90;;;;;;4939072;29;20462;-78
2021/05/13 05:57:27;;;;;;;23.10;20.30;;;11.10;99.90;;;;;;4937703;29;20510;-78
2021/05/13 05:59:55;;;;;;;25.73;21.60;;;11.10;99.90;;;;;;4937501;29;20837;-78
2021/05/13 06:02:23;;;;;;;26.20;22.90;;;11.10;99.90;;;;;;4937878;29;20890;-78
2021/05/13 06:04:52;;;;;;;28.07;23.40;;;11.20;99.90;;;;;;4938756;29;20894;-78
2021/05/13 06:07:20;;;;;;;26.13;21.93;;;11.20;99.90;;;;;;4936759;29;20506;-78
2021/05/13 06:09:48;;;;;;;29.53;24.73;;;11.20;99.90;;;;;;4937461;29;20559;-78
2021/05/13 06:12:16;;;;;;;30.40;23.93;;;11.20;99.90;;;;;;4937542;29;20483;-78
2021/05/13 06:14:44;;;;;;;26.83;23.80;;;11.30;99.90;;;;;;4937432;29;20542;-78
2021/05/13 06:17:12;;;;;;;28.77;21.50;;;11.30;99.90;;;;;;4937337;29;20467;-77
2021/05/13 06:19:39;;;;;;;29.10;23.80;;;11.30;99.90;;;;;;4938475;29;20504;-77
2021/05/13 06:22:07;;;;;;;30.40;23.47;;;11.30;99.90;;;;;;4938687;29;20436;-77
2021/05/13 06:24:35;;;;;;;25.90;23.10;;;11.30;99.90;;;;;;4938489;29;20432;-77
2021/05/13 06:27:05;;;;;;;30.33;24.37;;;11.30;99.90;;;;;;4938492;29;20453;-77
2021/05/13 06:29:34;;;;;;;28.63;23.10;;;11.40;99.90;;;;;;4936666;29;20516;-78
2021/05/13 06:32:02;;;;;;;24.97;21.30;;;11.40;99.90;;;;;;4937306;29;20479;-78
2021/05/13 06:34:30;;;;;;;27.90;24.97;;;11.50;99.90;;;;;;4937015;29;20880;-78
2021/05/13 06:36:57;;;;;;;26.70;23.90;;;11.50;99.90;;;;;;4937095;29;20531;-78
2021/05/13 06:39:26;;;;;;;31.10;25.63;;;11.50;99.90;;;;;;4937205;29;20531;-78
2021/05/13 06:41:53;;;;;;;30.80;24.30;;;11.60;99.90;;;;;;4936892;29;20463;-78
2021/05/13 06:44:21;;;;;;;30.10;23.90;;;11.60;99.90;;;;;;4938082;29;20446;-78
2021/05/13 06:46:51;;;;;;;27.57;22.73;;;11.70;99.90;;;;;;4939428;29;20432;-79
2021/05/13 06:49:19;;;;;;;27.00;24.10;;;11.70;99.90;;;;;;4937656;29;20460;-79
2021/05/13 06:51:47;;;;;;;26.83;22.63;;;11.80;99.90;;;;;;4934940;29;20660;-78
2021/05/13 06:54:15;;;;;;;28.57;22.40;;;12.00;99.90;;;;;;4936784;29;20886;-78
2021/05/13 06:56:42;;;;;;;28.93;22.10;;;12.10;99.90;;;;;;4936671;29;20462;-78
2021/05/13 06:59:10;;;;;;;26.75;22.50;;;12.20;99.90;;;;;;4937668;29;20533;-78
2021/05/13 07:01:38;;;;;;;24.80;22.10;;;12.30;99.90;;;;;;4937835;29;20271;-78
2021/05/13 07:04:06;;;;;;;25.63;21.33;;;12.40;99.90;;;;;;4938320;29;20447;-78
2021/05/13 07:06:36;;;;;;;25.87;21.33;;;12.50;99.90;;;;;;4938023;29;20475;-78
2021/05/13 07:09:04;;;;;;;21.30;19.02;;;12.60;99.90;;;;;;4936202;29;20974;-78
2021/05/13 07:11:32;;;;;;;26.23;20.10;;;12.80;99.90;;;;;;4936310;29;20250;-78
2021/05/13 07:14:00;;;;;;;26.23;19.60;;;12.90;99.90;;;;;;4936307;29;20474;-77
2021/05/13 07:16:28;;;;;;;22.60;18.70;;;13.00;99.90;;;;;;4937562;29;20465;-77
2021/05/13 07:18:55;;;;;;;23.27;17.13;;;13.20;99.90;;;;;;4937527;29;20447;-78
2021/05/13 07:21:24;;;;;;;24.73;15.47;;;13.40;99.90;;;;;;4937025;29;20532;-79
2021/05/13 07:23:52;;;;;;;20.50;15.40;;;13.50;99.90;;;;;;4936686;29;20814;-78
2021/05/13 07:26:20;;;;;;;19.30;17.17;;;13.60;99.90;;;;;;4936271;29;20812;-78
2021/05/13 07:28:48;;;;;;;21.63;17.27;;;13.80;99.90;;;;;;4937085;29;20448;-78
2021/05/13 07:31:16;;;;;;;20.00;15.90;;;14.10;99.90;;;;;;4936706;29;20468;-78
2021/05/13 07:33:43;;;;;;;17.80;14.37;;;14.30;99.90;;;;;;4935932;29;20451;-78
2021/05/13 07:36:11;;;;;;;18.70;16.10;;;14.50;99.90;;;;;;4937217;29;20411;-78
2021/05/13 07:38:40;;;;;;;19.60;17.53;;;14.70;99.90;;;;;;4935846;29;20458;-78
2021/05/13 07:41:08;;;;;;;22.40;17.93;;;14.90;99.90;;;;;;4937590;29;20438;-78
2021/05/13 07:43:37;;;;;;;17.20;15.40;;;15.20;99.90;;;;;;4935622;29;20538;-78
2021/05/13 07:46:06;;;;;;;15.40;13.80;;;15.30;99.90;;;;;;4935826;29;20448;-78
2021/05/13 07:48:34;;;;;;;17.77;14.53;;;15.30;99.90;;;;;;4935687;29;20438;-78
2021/05/13 07:51:01;;;;;;;16.23;13.37;;;15.40;99.90;;;;;;4935595;29;20501;-78
2021/05/13 07:53:29;;;;;;;17.60;15.87;;;15.60;99.90;;;;;;4937208;29;20468;-78
2021/05/13 07:55:58;;;;;;;16.40;14.70;;;15.90;99.90;;;;;;4937435;29;20497;-78
2021/05/13 07:58:26;;;;;;;15.73;11.97;;;16.10;99.90;;;;;;4935974;29;20542;-78
2021/05/13 08:00:53;;;;;;;13.53;10.87;;;16.20;99.90;;;;;;4939045;29;20897;-79
2021/05/13 08:03:23;;;;;;;16.23;11.70;;;16.30;99.90;;;;;;4940300;29;20506;-79
2021/05/13 08:05:51;;;;;;;14.90;11.40;;;16.40;99.90;;;;;;4938959;29;20456;-79
2021/05/13 08:08:19;;;;;;;11.53;8.67;;;16.50;99.90;;;;;;4939923;29;20523;-79
2021/05/13 08:10:47;;;;;;;13.63;8.90;;;16.60;99.90;;;;;;4939038;29;20446;-79
2021/05/13 08:13:17;;;;;;;11.90;9.70;;;16.80;99.90;;;;;;4938900;29;20471;-79
2021/05/13 08:15:44;;;;;;;11.73;10.43;;;16.90;99.90;;;;;;4936874;29;20539;-78
2021/05/13 08:18:12;;;;;;;14.05;11.25;;;17.00;99.90;;;;;;4936411;29;21001;-78
2021/05/13 08:20:39;;;;;;;11.07;9.60;;;17.00;99.90;;;;;;4935400;29;20323;-78
2021/05/13 08:23:07;;;;;;;10.43;9.33;;;17.00;99.90;;;;;;4935279;29;20827;-78
2021/05/13 08:25:35;;;;;;;11.50;10.00;;;16.90;99.90;;;;;;4936537;29;20976;-78
2021/05/13 08:28:08;;;;;;;11.50;10.30;;;16.90;99.90;;;;;;4935926;29;20476;-78
2021/05/13 08:30:38;;;;;;;14.13;11.37;;;16.80;99.90;;;;;;4937807;29;20476;-79
2021/05/13 08:33:06;;;;;;;14.50;10.90;;;16.90;99.90;;;;;;4935140;29;20558;-78
2021/05/13 08:35:34;;;;;;;11.00;9.73;;;16.90;99.90;;;;;;4935468;29;20802;-78
2021/05/13 08:38:01;;;;;;;10.90;8.77;;;17.00;99.90;;;;;;4935151;29;20500;-78
2021/05/13 08:40:30;;;;;;;11.90;8.97;;;16.90;99.90;;;;;;4938824;29;20464;-78
2021/05/13 08:42:58;;;;;;;9.93;8.63;;;16.80;99.90;;;;;;4938691;29;20440;-78
2021/05/13 08:45:27;;;;;;;10.30;8.90;;;16.70;99.90;;;;;;4938967;29;20439;-78
2021/05/13 08:47:55;;;;;;;9.97;8.20;;;16.60;99.90;;;;;;4939769;29;20444;-78
2021/05/13 08:50:23;;;;;;;12.30;9.10;;;16.60;99.90;;;;;;4938767;29;20530;-78
2021/05/13 08:52:50;;;;;;;16.20;9.43;;;16.50;99.90;;;;;;4940122;29;20841;-79
2021/05/13 08:55:19;;;;;;;10.90;8.27;;;16.50;99.90;;;;;;4939864;29;20471;-80
2021/05/13 08:57:46;;;;;;;15.03;8.73;;;16.40;99.90;;;;;;4937270;29;20945;-78
2021/05/13 09:00:16;;;;;;;10.33;7.87;;;16.40;99.90;;;;;;4935975;29;20463;-78
2021/05/13 09:02:50;;;;;;;7.17;6.50;;;16.40;99.90;;;;;;4933760;29;21008;-78
2021/05/13 09:05:19;;;;;;;9.47;7.10;;;16.40;99.90;;;;;;4917241;29;20480;-78
2021/05/13 09:07:46;;;;;;;8.83;6.73;;;16.40;99.90;;;;;;4927641;29;20455;-78
2021/05/13 09:10:16;;;;;;;8.57;6.43;;;16.40;99.90;;;;;;4935358;29;20471;-77
2021/05/13 09:12:47;;;;;;;8.17;6.80;;;16.50;99.90;;;;;;4937613;29;20475;-77
2021/05/13 09:15:18;;;;;;;7.77;6.27;;;16.50;99.90;;;;;;4940800;29;20452;-77
2021/05/13 09:17:48;;;;;;;8.17;6.27;;;16.60;99.90;;;;;;4939882;29;20458;-77
2021/05/13 09:20:27;;;;;;;6.83;6.00;;;16.70;99.90;;;;;;4938302;29;20510;-77
2021/05/13 09:23:11;;;;;;;6.50;4.93;;;16.80;99.90;;;;;;4938370;29;20447;-77
2021/05/13 09:25:38;;;;;;;6.53;4.60;;;17.00;99.90;;;;;;4939200;29;20447;-77
2021/05/13 09:28:07;;;;;;;8.17;4.80;;;17.20;99.90;;;;;;4939533;29;20487;-77
2021/05/13 09:30:36;;;;;;;6.30;4.75;;;17.30;99.90;;;;;;4938929;29;20483;-77
2021/05/13 09:33:05;;;;;;;6.20;3.90;;;17.40;99.90;;;;;;4940026;29;20295;-77
2021/05/13 09:35:35;;;;;;;3.70;2.40;;;17.30;99.90;;;;;;4938113;29;20503;-77
2021/05/13 09:38:05;;;;;;;4.43;3.00;;;17.30;99.90;;;;;;4939905;29;20431;-77
2021/05/13 09:40:35;;;;;;;5.18;3.00;;;17.20;99.90;;;;;;4939052;29;20551;-77
2021/05/13 09:43:10;;;;;;;4.70;3.70;;;17.10;99.90;;;;;;4938949;29;20184;-77
2021/05/13 09:45:42;;;;;;;5.17;3.47;;;17.20;99.90;;;;;;4941092;29;20455;-80
2021/05/13 09:48:10;;;;;;;5.57;4.17;;;17.20;99.90;;;;;;4942108;29;20444;-78
2021/05/13 09:50:38;;;;;;;5.83;3.67;;;17.20;99.90;;;;;;4938710;29;20556;-80
2021/05/13 09:53:06;;;;;;;5.63;3.27;;;17.30;99.90;;;;;;4939851;29;20969;-78
2021/05/13 09:55:34;;;;;;;7.23;3.90;;;17.40;99.90;;;;;;4939361;29;20451;-78
2021/05/13 09:58:06;;;;;;;4.10;2.50;;;17.40;99.90;;;;;;4939423;29;20451;-78
2021/05/13 10:00:40;;;;;;;2.93;2.60;;;17.40;99.80;;;;;;4937645;29;21009;-78
2021/05/13 10:03:10;;;;;;;2.30;2.10;;;17.40;99.90;;;;;;4940528;29;20428;-78
2021/05/13 10:05:41;;;;;;;4.93;2.50;;;17.50;99.60;;;;;;4937258;29;20479;-78
2021/05/13 10:08:10;;;;;;;3.47;2.60;;;17.30;99.00;;;;;;4938761;29;20499;-78
2021/05/13 10:10:39;;;;;;;7.10;4.60;;;17.20;98.90;;;;;;4938920;29;20464;-78
2021/05/13 10:13:07;;;;;;;4.70;2.90;;;17.10;99.30;;;;;;4937330;29;20571;-78
2021/05/13 10:15:38;;;;;;;6.37;2.90;;;17.10;99.30;;;;;;4937455;29;20985;-78
2021/05/13 10:18:28;;;;;;;5.97;3.17;;;17.10;99.30;;;;;;4938260;29;20464;-78
2021/05/13 10:21:02;;;;;;;5.13;2.60;;;17.20;99.40;;;;;;4933931;29;20489;-78
2021/05/13 10:23:31;;;;;;;5.47;2.43;;;17.40;99.40;;;;;;4937617;29;20440;-78
2021/05/13 10:25:59;;;;;;;5.90;2.87;;;17.50;99.40;;;;;;4938714;29;20432;-78
2021/05/13 10:28:31;;;;;;;4.63;2.33;;;17.60;99.10;;;;;;4937405;29;20451;-78
2021/05/13 10:31:06;;;;;;;3.00;2.30;;;17.60;99.00;;;;;;4936259;29;20482;-78
2021/05/13 10:33:47;;;;;;;2.97;2.30;;;17.60;98.70;;;;;;4938496;29;20468;-78
2021/05/13 10:36:22;;;;;;;4.90;2.43;;;17.50;98.40;;;;;;4937049;29;20462;-77
2021/05/13 10:38:51;;;;;;;2.30;1.80;;;17.60;98.50;;;;;;4936864;29;20973;-77
2021/05/13 10:41:46;;;;;;;3.30;2.20;;;17.70;98.60;;;;;;4936996;29;20499;-77
2021/05/13 10:44:36;;;;;;;2.87;2.50;;;17.80;98.20;;;;;;4938451;29;20448;-77
2021/05/13 10:47:07;;;;;;;3.63;2.30;;;17.80;98.20;;;;;;4937857;29;20441;-77
2021/05/13 10:49:48;;;;;;;3.73;2.13;;;17.80;98.00;;;;;;4936790;29;20316;-77
2021/05/13 10:52:40;;;;;;;5.17;1.93;;;17.90;97.80;;;;;;4936718;29;20559;-78
2021/05/13 10:55:10;;;;;;;3.87;2.53;;;17.90;97.80;;;;;;4938224;29;20511;-77
2021/05/13 10:57:48;;;;;;;3.60;2.20;;;18.00;97.90;;;;;;4936710;29;20911;-77
2021/05/13 11:00:27;;;;;;;4.47;2.20;;;17.90;97.60;;;;;;4937814;29;20903;-77
2021/05/13 11:02:55;;;;;;;3.97;1.60;;;18.00;97.80;;;;;;4935371;29;20534;-77
2021/05/13 11:05:42;;;;;;;6.00;2.33;;;18.00;97.80;;;;;;4937724;29;20447;-77
2021/05/13 11:08:28;;;;;;;4.27;2.03;;;18.00;97.50;;;;;;4938054;29;20435;-77
2021/05/13 11:11:02;;;;;;;3.87;2.47;;;18.10;97.60;;;;;;4938213;29;20506;-77
2021/05/13 11:13:53;;;;;;;2.80;1.77;;;18.10;97.60;;;;;;4937567;29;20559;-77
2021/05/13 11:16:43;;;;;;;5.07;3.30;;;18.10;97.20;;;;;;4918224;29;20894;-77
2021/05/13 11:19:32;;;;;;;4.70;2.37;;;18.10;97.10;;;;;;4917484;29;20469;-77
2021/05/13 11:22:07;;;;;;;3.23;1.93;;;18.00;97.10;;;;;;4912027;29;20477;-77
2021/05/13 11:24:40;;;;;;;3.57;1.70;;;17.90;97.20;;;;;;4923794;29;20499;-78
2021/05/13 11:27:11;;;;;;;3.43;2.40;;;17.90;97.10;;;;;;4937387;29;20993;-78
2021/05/13 11:29:47;;;;;;;7.07;3.40;;;17.90;97.10;;;;;;4937458;29;20873;-77
2021/05/13 11:32:15;;;;;;;5.37;2.73;;;17.90;97.00;;;;;;4936006;29;20468;-77
2021/05/13 11:34:45;;;;;;;4.17;2.20;;;17.90;97.20;;;;;;4935649;29;20813;-77
2021/05/13 11:37:35;;;;;;;3.07;2.40;;;17.90;97.20;;;;;;4937210;29;20552;-77
2021/05/13 11:40:23;;;;;;;3.80;2.67;;;18.00;97.10;;;;;;4936579;29;20445;-78
2021/05/13 11:42:51;;;;;;;3.10;2.70;;;18.10;96.50;;;;;;4937406;29;20444;-78
2021/05/13 11:45:20;;;;;;;4.47;4.07;;;18.10;96.50;;;;;;4936751;29;20452;-78
2021/05/13 11:47:49;;;;;;;4.60;2.40;;;18.00;96.70;;;;;;4935729;29;20502;-78
2021/05/13 11:50:27;;;;;;;5.32;2.80;;;18.10;96.80;;;;;;4929272;29;20457;-78
2021/05/13 11:53:05;;;;;;;4.40;2.80;;;18.20;96.70;;;;;;4936921;29;20204;-78
2021/05/13 11:55:34;;;;;;;4.40;2.17;;;18.30;96.80;;;;;;4936880;29;20454;-77
2021/05/13 11:58:02;;;;;;;3.30;2.00;;;18.20;96.60;;;;;;4937313;29;20938;-77
2021/05/13 12:00:30;;;;;;;3.00;2.60;;;18.30;96.60;;;;;;4935469;29;20471;-77
2021/05/13 12:03:14;;;;;;;4.90;3.10;;;18.30;96.60;;;;;;4935503;29;20440;-77
2021/05/13 12:05:50;;;;;;;3.87;2.83;;;18.30;96.40;;;;;;4936529;29;20542;-78
2021/05/13 12:08:19;;;;;;;3.73;2.67;;;18.30;96.70;;;;;;4936713;29;20466;-78
2021/05/13 12:10:48;;;;;;;2.87;2.50;;;18.30;96.40;;;;;;4936564;29;20491;-78
2021/05/13 12:13:16;;;;;;;6.47;2.87;;;18.30;96.30;;;;;;4935495;29;20824;-77
2021/05/13 12:15:44;;;;;;;3.20;2.43;;;18.30;96.30;;;;;;4936853;29;20487;-77
2021/05/13 12:18:11;;;;;;;2.90;2.20;;;18.30;96.40;;;;;;4935133;29;20475;-77
2021/05/13 12:20:42;;;;;;;4.03;2.03;;;18.30;96.30;;;;;;4935108;29;20562;-77
2021/05/13 12:23:10;;;;;;;1.97;1.80;;;18.30;96.20;;;;;;4934790;29;20452;-78
2021/05/13 12:25:37;;;;;;;4.53;2.40;;;18.20;96.10;;;;;;4936690;29;20530;-78
2021/05/13 12:28:06;;;;;;;3.33;2.30;;;18.20;96.20;;;;;;4936423;29;20945;-78
2021/05/13 12:30:34;;;;;;;2.30;2.10;;;18.20;96.10;;;;;;4936243;29;20470;-78
2021/05/13 12:33:20;;;;;;;2.73;1.93;;;18.20;95.90;;;;;;4935163;29;20478;-78
2021/05/13 12:35:49;;;;;;;2.10;1.90;;;18.10;95.90;;;;;;4935053;29;20466;-78
2021/05/13 12:38:18;;;;;;;3.40;2.87;;;18.10;95.80;;;;;;4934960;29;20460;-78
2021/05/13 12:40:46;;;;;;;3.72;2.45;;;18.10;95.80;;;;;;4935932;29;20449;-78
2021/05/13 12:43:16;;;;;;;3.50;2.37;;;18.10;95.70;;;;;;4934927;29;20291;-78
2021/05/13 12:45:45;;;;;;;4.20;2.77;;;18.00;95.50;;;;;;4934854;29;20456;-78
2021/05/13 12:48:21;;;;;;;3.10;2.00;;;17.90;95.60;;;;;;4935828;29;20539;-78
2021/05/13 12:51:00;;;;;;;3.40;2.73;;;17.80;95.50;;;;;;4935815;29;20471;-78